This is the latest recevied weather packets stored in our database for station/object VK5TRM-13. If no packets are shown the sender has not sent any weather packets the latest 10 day(s).
| Time | Temp. | Humidity | Pressure | Rain* | Wind** | Luminosity | Snow |
|---|---|---|---|---|---|---|---|
| 1787457003 | 18.33° C | 53% | 1023 hPa | 0 mm | - | - | - |
| 1787456103 | 18.33° C | 53% | 1023 hPa | 0 mm | - | - | - |
| 1787455202 | 17.78° C | 53% | 1023.6 hPa | 0 mm | - | - | - |
| 1787454302 | 17.78° C | 53% | 1023.6 hPa | 0 mm | - | - | - |
| 1787453402 | 17.78° C | 54% | 1024 hPa | 0 mm | - | - | - |
| 1787452503 | 17.78° C | 54% | 1024 hPa | 0 mm | - | - | - |
| 1787451602 | 17.78° C | 56% | 1024.9 hPa | 0 mm | - | - | - |
| 1787450703 | 17.78° C | 56% | 1024.9 hPa | 0 mm | - | - | - |
| 1787449802 | 16.11° C | 59% | 1025.3 hPa | 0 mm | - | - | - |
| 1787448902 | 16.11° C | 59% | 1025.3 hPa | 0 mm | - | - | - |
| 1787448003 | 16.67° C | 60% | 1025.5 hPa | 0 mm | - | - | - |
| 1787447102 | 16.67° C | 60% | 1025.5 hPa | 0 mm | - | - | - |
| 1787446202 | 15.56° C | 63% | 1025.7 hPa | 0 mm | - | - | - |
| 1787445303 | 15.56° C | 63% | 1025.7 hPa | 0 mm | - | - | - |
| 1787444403 | 14.44° C | 68% | 1026 hPa | 0 mm | - | - | - |
| 1787443503 | 14.44° C | 68% | 1026 hPa | 0 mm | - | - | - |
| 1787442602 | 13.33° C | 74% | 1026.4 hPa | 0 mm | - | - | - |
| 1787441703 | 13.33° C | 74% | 1026.4 hPa | 0 mm | - | - | - |
| 1787440802 | 12.22° C | 81% | 1026.5 hPa | 0 mm | - | - | - |
| 1787439902 | 12.22° C | 81% | 1026.5 hPa | 0 mm | - | - | - |
| 1787439003 | 10° C | 96% | 1026.6 hPa | 0 mm | - | - | - |
| 1787438102 | 10° C | 96% | 1026.6 hPa | 0 mm | - | - | - |
| 1787437202 | 8.33° C | 96% | 1026.6 hPa | 0 mm | - | - | - |
| 1787436302 | 8.33° C | 96% | 1026.6 hPa | 0 mm | - | - | - |
| 1787435403 | 7.78° C | 96% | 1026.4 hPa | 0 mm | - | - | - |
* Rain latest hour (hover to see other rain measurements)
** Current wind speed in m/s (hover to see current wind gust speed)